Terminal Aerodrome Forecast
Issued by NWS

Home | Current Version | Previous Version | Text Only | Print | Product List | Glossary On
Versions: 1 2 3 4 5 6 7 8 9 10 11 12 13 14 15
000
FTUS46 KSEW 241120
TAFPAE
TAF
KPAE 241120Z 2412/2512 17012KT P6SM VCSH BKN006 OVC012
      TEMPO 2412/2416 -SHRASN OVC005
     FM241800 32006KT P6SM VCSH OVC015
     FM242100 30006KT P6SM VCSH BKN035
     FM250600 18016G25KT P6SM -RA OVC012=

USA.gov is the U.S. government's official web portal to all federal, state and local government web resources and services.